Time;durP1;ratioP1;P1;durP2;ratioP2;P2;SDS_P1;SDS_P2;PMS_P1;PMS_P2;Temp;Humidity;BMP_temperature;BMP_pressure;BME280_temperature;BME280_humidity;BME280_pressure;Samples;Min_cycle;Max_cycle;Signal;HPM_P1;HPM_P2
2022/12/04 00:01:23;;;;;;;19.67;16.23;;;;;;;5.00;63.22;101668.91;5015682;28;20456;-83
2022/12/04 00:03:53;;;;;;;19.08;16.38;;;;;;;4.99;62.90;101672.63;5027394;28;20079;-82
2022/12/04 00:06:19;;;;;;;19.10;17.27;;;;;;;4.97;63.44;101667.44;5013097;28;20022;-82
2022/12/04 00:08:46;;;;;;;24.33;17.02;;;;;;;4.97;63.32;101667.44;5013559;28;20048;-83
2022/12/04 00:11:14;;;;;;;27.73;19.90;;;;;;;4.97;63.18;101663.94;5018750;28;20187;-81
2022/12/04 00:13:40;;;;;;;19.15;16.63;;;;;;;4.97;62.97;101667.44;5018833;28;20030;-81
2022/12/04 00:16:07;;;;;;;17.30;15.88;;;;;;;4.96;63.19;101656.91;5016776;28;20038;-81
2022/12/04 00:18:33;;;;;;;29.02;20.23;;;;;;;4.95;63.09;101666.78;5013432;28;20033;-81
2022/12/04 00:20:58;;;;;;;20.63;18.58;;;;;;;4.95;63.27;101655.25;5018224;28;20083;-80
2022/12/04 00:23:23;;;;;;;22.50;19.42;;;;;;;4.93;62.82;101652.75;5002600;28;20125;-80
2022/12/04 00:25:49;;;;;;;14.45;13.30;;;;;;;4.92;62.97;101656.44;5011953;28;20045;-81
2022/12/04 00:28:18;;;;;;;28.67;21.60;;;;;;;4.93;63.18;101657.28;5010912;28;20033;-81
2022/12/04 00:30:44;;;;;;;;;;;;;;;4.94;63.09;101658.97;5026832;28;20034;-81
2022/12/04 00:33:10;;;;;;;29.48;19.15;;;;;;;4.92;62.94;101655.63;5014225;28;19920;-81
2022/12/04 00:35:36;;;;;;;15.82;14.38;;;;;;;4.91;63.05;101649.44;5026059;28;20033;-81
2022/12/04 00:38:02;;;;;;;15.35;13.98;;;;;;;4.92;63.24;101655.63;4997715;28;20041;-80
2022/12/04 00:40:27;;;;;;;20.60;17.27;;;;;;;4.93;63.27;101651.91;5029134;28;20047;-81
2022/12/04 00:42:52;;;;;;;28.25;19.48;;;;;;;4.93;63.17;101650.06;5026626;28;20390;-83
2022/12/04 00:45:18;;;;;;;13.57;12.68;;;;;;;4.93;63.21;101646.56;5001915;28;20041;-81
2022/12/04 00:47:43;;;;;;;21.77;19.67;;;;;;;4.94;63.18;101649.06;5009012;28;20072;-80
2022/12/04 00:50:09;;;;;;;19.02;17.50;;;;;;;4.95;63.42;101647.22;5010177;28;20540;-81
2022/12/04 00:52:34;;;;;;;22.13;17.08;;;;;;;4.95;63.39;101649.91;5011822;28;20375;-82
2022/12/04 00:55:00;;;;;;;29.63;19.38;;;;;;;4.95;63.28;101645.38;5001152;28;20037;-82
2022/12/04 00:57:25;;;;;;;13.70;12.82;;;;;;;4.95;63.14;101650.72;5016205;28;20065;-83
2022/12/04 00:59:50;;;;;;;20.27;16.52;;;;;;;4.95;63.21;101650.72;5017925;28;20033;-83
2022/12/04 01:02:16;;;;;;;17.13;15.63;;;;;;;4.96;63.11;101651.56;5015140;28;20029;-83
2022/12/04 01:04:41;;;;;;;13.10;12.15;;;;;;;4.95;63.51;101648.03;4997693;28;20038;-82
2022/12/04 01:07:07;;;;;;;14.80;13.57;;;;;;;4.95;63.42;101652.56;4994339;28;20037;-81
2022/12/04 01:09:32;;;;;;;18.42;16.65;;;;;;;4.94;63.28;101656.28;5012416;28;20040;-81
2022/12/04 01:11:58;;;;;;;22.15;18.95;;;;;;;4.94;63.07;101659.78;5012922;28;20048;-82
2022/12/04 01:14:23;;;;;;;13.75;12.68;;;;;;;4.94;63.42;101662.47;5014333;28;20222;-80
2022/12/04 01:16:48;;;;;;;26.67;18.00;;;;;;;4.95;63.36;101665.97;5011779;28;20069;-84
2022/12/04 01:19:14;;;;;;;26.58;19.20;;;;;;;4.94;63.16;101664.31;5014057;28;20058;-80
2022/12/04 01:21:39;;;;;;;22.25;17.27;;;;;;;4.93;63.09;101660.78;5000515;28;20402;-80
2022/12/04 01:24:05;;;;;;;30.35;19.27;;;;;;;4.94;63.38;101658.97;5013107;28;20029;-80
2022/12/04 01:26:31;;;;;;;38.25;25.27;;;;;;;4.94;63.19;101658.97;5011125;28;20037;-81
2022/12/04 01:28:56;;;;;;;22.27;17.15;;;;;;;4.92;63.32;101661.81;5012473;28;20032;-81
2022/12/04 01:31:25;;;;;;;27.42;19.65;;;;;;;4.92;62.91;101660.97;5011628;28;20466;-81
2022/12/04 01:33:51;;;;;;;21.90;18.17;;;;;;;4.91;63.07;101665.50;5016536;28;20041;-81
2022/12/04 01:36:22;;;;;;;20.90;18.45;;;;;;;4.91;63.03;101659.31;5014400;28;20064;-81
2022/12/04 01:38:48;;;;;;;20.50;18.20;;;;;;;4.89;63.07;101655.97;5011743;28;20486;-82
2022/12/04 01:41:16;;;;;;;25.42;18.77;;;;;;;4.89;63.06;101664.00;5021739;28;20048;-81
2022/12/04 01:43:42;;;;;;;20.13;18.43;;;;;;;4.87;62.87;101658.84;5010746;28;20026;-82
2022/12/04 01:46:08;;;;;;;19.70;16.77;;;;;;;4.86;62.86;101649.13;5012870;28;20284;-81
2022/12/04 01:48:51;;;;;;;26.23;19.33;;;;;;;4.86;63.17;101648.31;5022956;28;20032;-82
2022/12/04 01:51:21;;;;;;;27.08;17.85;;;;;;;4.85;63.25;101647.47;5000458;28;20116;-81
2022/12/04 01:53:53;;;;;;;17.20;15.45;;;;;;;4.85;63.28;101646.66;5012045;28;20029;-82
2022/12/04 01:56:24;;;;;;;18.33;16.42;;;;;;;4.86;63.35;101645.63;5010285;28;20065;-82
2022/12/04 01:58:53;;;;;;;21.00;16.95;;;;;;;4.86;63.21;101646.47;5011892;28;20522;-85
2022/12/04 02:01:18;;;;;;;15.23;14.18;;;;;;;4.87;62.91;101642.78;5010943;28;20033;-82
2022/12/04 02:03:44;;;;;;;18.38;16.67;;;;;;;4.87;63.00;101648.13;5026998;28;20029;-81
2022/12/04 02:06:09;;;;;;;14.40;13.23;;;;;;;4.86;63.09;101638.44;5019590;28;20041;-82
2022/12/04 02:08:36;;;;;;;21.77;18.92;;;;;;;4.85;63.18;101643.97;5012919;28;20129;-81
2022/12/04 02:11:07;;;;;;;15.48;14.25;;;;;;;4.85;63.06;101641.31;5004473;28;20494;-81
2022/12/04 02:13:51;;;;;;;18.13;16.42;;;;;;;4.84;63.24;101637.81;5012910;28;20034;-84
2022/12/04 02:16:38;;;;;;;16.13;14.90;;;;;;;4.82;63.31;101639.81;5010894;28;20061;-81
2022/12/04 02:19:46;;;;;;;28.00;16.45;;;;;;;4.81;63.19;101630.13;5014270;28;20464;-80
2022/12/04 02:22:56;;;;;;;24.17;16.88;;;;;;;4.81;63.02;101632.78;5014500;28;20030;-79
2022/12/04 02:25:40;;;;;;;19.08;17.10;;;;;;;4.80;63.36;101636.50;5015037;28;20049;-82
2022/12/04 02:28:24;;;;;;;25.67;19.55;;;;;;;4.81;63.17;101637.31;5013606;28;20038;-82
2022/12/04 02:30:55;;;;;;;13.68;12.55;;;;;;;4.79;63.21;101629.50;5015337;28;20026;-82
2022/12/04 02:34:22;;;;;;;20.17;16.83;;;;;;;4.81;63.14;101640.00;5014749;28;20030;-81
2022/12/04 02:37:03;;;;;;;14.32;13.25;;;;;;;4.81;63.19;101642.66;4984432;28;20043;-83
2022/12/04 02:39:47;;;;;;;24.70;18.50;;;;;;;4.82;63.32;101633.66;5017499;28;20041;-82
2022/12/04 02:42:23;;;;;;;19.10;17.38;;;;;;;4.80;63.14;101631.13;5023653;28;20482;-82
2022/12/04 02:44:54;;;;;;;24.60;19.60;;;;;;;4.80;63.22;101636.50;5014647;28;20030;-83
2022/12/04 02:47:22;;;;;;;21.92;16.98;;;;;;;4.80;63.32;101639.16;5014581;28;20099;-82
2022/12/04 02:49:56;;;;;;;13.80;12.70;;;;;;;4.78;62.91;101636.66;5013993;28;20034;-83
2022/12/04 02:52:30;;;;;;;17.27;15.88;;;;;;;4.78;63.04;101631.31;5015480;28;20022;-82
2022/12/04 02:55:00;;;;;;;18.52;16.98;;;;;;;4.80;63.24;101627.63;5014973;28;20033;-81
2022/12/04 02:57:32;;;;;;;26.58;21.27;;;;;;;4.80;63.28;101628.47;5031821;28;20061;-86
2022/12/04 03:00:00;;;;;;;27.83;15.90;;;;;;;4.78;63.03;101625.97;5017910;28;20030;-81
2022/12/04 03:02:38;;;;;;;19.80;16.17;;;;;;;4.78;63.10;101619.78;5018385;28;20034;-83
2022/12/04 03:05:11;;;;;;;14.95;13.80;;;;;;;4.78;63.19;101625.13;5015753;28;20497;-81
2022/12/04 03:07:44;;;;;;;15.75;14.48;;;;;;;4.76;63.25;101619.97;5018083;28;20033;-81
2022/12/04 03:10:19;;;;;;;27.27;19.00;;;;;;;4.73;63.16;101623.00;5009204;28;20451;-82
2022/12/04 03:12:51;;;;;;;26.77;17.73;;;;;;;4.72;63.16;101623.19;5010269;28;20092;-82
2022/12/04 03:15:27;;;;;;;12.38;11.68;;;;;;;4.71;62.77;101627.72;5014336;28;20030;-82
2022/12/04 03:18:04;;;;;;;17.42;15.80;;;;;;;4.70;62.92;101618.00;5014458;28;20026;-83
2022/12/04 03:20:33;;;;;;;21.77;19.48;;;;;;;4.70;63.26;101612.66;5013712;28;20076;-83
2022/12/04 03:23:05;;;;;;;14.27;13.27;;;;;;;4.71;63.24;101622.38;5014566;28;20034;-82
2022/12/04 03:25:39;;;;;;;18.17;16.33;;;;;;;4.72;63.23;101618.66;5012695;28;20026;-83
2022/12/04 03:28:15;;;;;;;34.70;21.48;;;;;;;4.72;63.19;101615.16;5013547;28;20030;-83
2022/12/04 03:30:47;;;;;;;23.70;17.17;;;;;;;4.70;62.96;101615.34;5012523;28;20018;-82
2022/12/04 03:33:18;;;;;;;43.25;23.25;;;;;;;4.71;63.09;101613.50;5025703;28;20029;-82
2022/12/04 03:36:12;;;;;;;16.85;15.23;;;;;;;4.71;63.13;101616.16;5012339;28;20033;-82
2022/12/04 03:38:53;;;;;;;16.17;14.80;;;;;;;4.71;63.30;101610.81;5012783;28;20092;-82
2022/12/04 03:41:27;;;;;;;25.73;18.35;;;;;;;4.70;63.41;101614.50;5015281;28;20113;-82
2022/12/04 03:44:11;;;;;;;25.83;19.55;;;;;;;4.71;63.48;101610.81;5014918;28;20026;-83
2022/12/04 03:47:17;;;;;;;17.42;15.73;;;;;;;4.72;63.12;101612.50;5018603;28;20125;-82
2022/12/04 03:49:57;;;;;;;26.95;17.17;;;;;;;4.72;62.95;101607.13;5030811;28;20133;-83
2022/12/04 03:52:28;;;;;;;21.58;16.42;;;;;;;4.72;63.37;101607.13;5013892;28;20034;-81
2022/12/04 03:55:03;;;;;;;20.08;17.88;;;;;;;4.72;63.21;101612.50;5029291;28;20486;-83
2022/12/04 03:57:33;;;;;;;15.98;14.60;;;;;;;4.69;63.17;101607.50;5011642;28;20077;-82
2022/12/04 04:00:12;;;;;;;15.52;14.23;;;;;;;4.70;63.10;101609.16;5003853;28;20049;-84
2022/12/04 04:02:42;;;;;;;20.95;18.60;;;;;;;4.67;62.83;101610.34;5013408;28;20092;-83
2022/12/04 04:05:10;;;;;;;32.10;19.63;;;;;;;4.67;63.37;101612.22;5012653;28;20494;-83
2022/12/04 04:07:42;;;;;;;17.45;14.73;;;;;;;4.66;63.36;101610.53;5022846;28;20505;-84
2022/12/04 04:10:21;;;;;;;28.02;21.35;;;;;;;4.66;63.26;101603.34;5016420;28;20033;-83
2022/12/04 04:24:13;;;;;;;;;;;;;;;4.66;63.28;101605.19;5024523;28;20045;-82
2022/12/04 04:26:45;;;;;;;29.25;20.45;;;;;;;4.63;62.92;101595.66;5011447;28;19914;-81
2022/12/04 04:29:11;;;;;;;17.85;15.90;;;;;;;4.62;63.13;101601.22;5013071;28;20088;-81
2022/12/04 04:32:05;;;;;;;25.35;19.45;;;;;;;4.63;63.11;101602.88;5012723;28;20030;-81
2022/12/04 04:34:55;;;;;;;15.40;13.50;;;;;;;4.63;63.35;101605.53;5001261;28;20049;-82
2022/12/04 04:37:44;;;;;;;17.55;13.38;;;;;;;4.62;63.03;101609.25;5002057;28;20504;-83
2022/12/04 04:40:29;;;;;;;23.23;18.45;;;;;;;4.60;63.28;101606.75;5014403;28;20033;-83
2022/12/04 04:43:25;;;;;;;15.80;14.35;;;;;;;4.60;63.11;101608.59;5013625;28;20124;-83
2022/12/04 04:46:12;;;;;;;18.83;16.88;;;;;;;4.63;63.42;101608.22;5011560;28;20029;-82
2022/12/04 04:48:41;;;;;;;16.30;14.90;;;;;;;4.63;63.14;101611.72;5000681;28;20172;-82
2022/12/04 04:51:08;;;;;;;35.97;22.52;;;;;;;4.65;63.40;101611.56;5002937;28;20083;-84
2022/12/04 04:53:42;;;;;;;39.80;23.63;;;;;;;4.64;63.47;101609.91;5007965;28;20478;-83
2022/12/04 04:56:08;;;;;;;19.30;16.85;;;;;;;4.64;63.24;101607.22;5011996;28;20516;-83
2022/12/04 04:58:33;;;;;;;18.05;16.27;;;;;;;4.63;63.23;101608.22;5022638;28;20120;-82
2022/12/04 05:01:06;;;;;;;14.65;13.43;;;;;;;4.65;63.52;101608.88;5011473;28;20064;-82
2022/12/04 05:03:32;;;;;;;22.98;18.77;;;;;;;4.63;63.26;101606.38;5011805;28;20026;-83
2022/12/04 05:05:58;;;;;;;27.20;19.92;;;;;;;4.63;63.25;101608.22;5005986;28;20041;-84
2022/12/04 05:08:23;;;;;;;16.08;14.20;;;;;;;4.64;63.49;101613.41;5019615;28;20494;-82
2022/12/04 05:10:49;;;;;;;20.25;18.30;;;;;;;4.62;63.36;101612.75;5012757;28;20034;-84
2022/12/04 05:13:15;;;;;;;15.88;14.18;;;;;;;4.62;63.10;101610.06;5021963;28;20045;-81
2022/12/04 05:15:41;;;;;;;16.45;15.07;;;;;;;4.62;63.22;101607.41;5011712;28;20033;-86
2022/12/04 05:18:07;;;;;;;16.33;14.60;;;;;;;4.60;63.14;101609.41;5012160;28;20030;-83
2022/12/04 05:20:32;;;;;;;22.13;18.42;;;;;;;4.60;63.16;101616.63;5011815;28;20021;-81
2022/12/04 05:22:58;;;;;;;14.68;13.45;;;;;;;4.59;63.15;101612.28;5011684;28;20358;-82
2022/12/04 05:25:23;;;;;;;18.67;15.07;;;;;;;4.58;63.23;101616.78;5011902;28;20074;-84
2022/12/04 05:27:49;;;;;;;39.15;25.38;;;;;;;4.58;63.47;101611.44;5011683;28;20462;-82
2022/12/04 05:30:15;;;;;;;27.02;20.33;;;;;;;4.57;63.26;101609.78;5010750;28;20069;-82
2022/12/04 05:32:40;;;;;;;21.05;18.85;;;;;;;4.58;62.88;101626.66;5010392;28;20040;-82
2022/12/04 05:35:06;;;;;;;26.80;19.10;;;;;;;4.58;63.07;101613.28;5019369;28;20468;-83
2022/12/04 05:37:36;;;;;;;34.15;20.70;;;;;;;4.57;62.97;101617.81;5010383;28;20561;-82
2022/12/04 05:40:03;;;;;;;18.60;16.73;;;;;;;4.56;63.15;101613.47;5012043;28;20030;-82
2022/12/04 05:42:29;;;;;;;22.60;19.27;;;;;;;4.56;63.28;101610.78;5010404;28;20125;-82
2022/12/04 05:44:54;;;;;;;17.08;15.55;;;;;;;4.57;63.17;101608.97;5022150;28;20190;-81
2022/12/04 05:47:19;;;;;;;24.10;18.42;;;;;;;4.57;63.46;101609.78;5016319;28;20038;-82
2022/12/04 05:49:45;;;;;;;30.35;20.77;;;;;;;4.59;63.46;101614.97;5012600;28;20116;-82
2022/12/04 05:52:10;;;;;;;35.88;20.95;;;;;;;4.58;63.41;101614.13;5010313;28;20034;-82
2022/12/04 05:54:36;;;;;;;12.35;11.52;;;;;;;4.58;63.21;101607.94;5012017;28;20105;-81
2022/12/04 05:57:01;;;;;;;27.52;17.90;;;;;;;4.57;63.36;101615.13;5012630;28;20414;-82
2022/12/04 05:59:27;;;;;;;22.13;18.08;;;;;;;4.58;63.33;101605.25;5010055;28;20398;-83
2022/12/04 06:01:52;;;;;;;22.25;17.92;;;;;;;4.58;63.15;101606.09;5011157;28;20073;-84
2022/12/04 06:04:17;;;;;;;23.60;18.00;;;;;;;4.57;63.52;101599.09;5010533;28;20088;-83
2022/12/04 06:06:43;;;;;;;25.63;20.85;;;;;;;4.58;63.17;101598.06;5017368;28;20041;-82
2022/12/04 06:09:10;;;;;;;31.35;20.92;;;;;;;4.58;63.53;101594.56;5011591;28;20057;-83
2022/12/04 06:11:37;;;;;;;27.00;19.08;;;;;;;4.60;63.46;101592.53;5011717;28;20033;-84
2022/12/04 06:14:05;;;;;;;21.05;15.77;;;;;;;4.60;63.23;101598.72;5021498;28;20042;-86
2022/12/04 06:16:34;;;;;;;13.90;12.75;;;;;;;4.61;63.11;101596.88;5009244;28;20036;-82
2022/12/04 06:19:02;;;;;;;14.65;13.60;;;;;;;4.60;63.49;101600.56;5012054;28;20113;-82
2022/12/04 06:21:30;;;;;;;16.08;14.65;;;;;;;4.59;63.48;101602.41;5011267;28;20038;-83
2022/12/04 06:23:55;;;;;;;33.05;19.83;;;;;;;4.59;63.50;101598.91;5006567;28;20442;-81
2022/12/04 06:26:22;;;;;;;13.90;12.77;;;;;;;4.57;63.09;101596.41;5005341;28;20486;-84
2022/12/04 06:28:48;;;;;;;26.25;20.88;;;;;;;4.57;62.94;101599.09;5017574;28;20038;-83
2022/12/04 06:31:15;;;;;;;38.25;23.00;;;;;;;4.55;63.13;101601.09;5011371;28;20022;-85
2022/12/04 06:33:41;;;;;;;17.35;14.52;;;;;;;4.55;63.43;101601.09;5009818;28;20042;-80
2022/12/04 06:36:10;;;;;;;33.65;21.92;;;;;;;4.55;63.34;101593.91;4995249;28;20096;-84
2022/12/04 06:38:35;;;;;;;;;;;;;;;4.57;63.46;101596.41;5023188;28;20087;-81
2022/12/04 06:41:05;;;;;;;20.88;18.65;;;;;;;4.57;63.25;101593.72;5016314;28;20519;-81
2022/12/04 06:43:31;;;;;;;15.68;14.38;;;;;;;4.57;63.27;101595.59;5010247;28;20042;-82
2022/12/04 06:46:01;;;;;;;18.90;16.98;;;;;;;4.55;62.87;101588.56;5013078;28;20045;-83
2022/12/04 06:48:28;;;;;;;42.33;22.52;;;;;;;4.57;63.35;101587.56;5010733;28;20034;-82
2022/12/04 06:51:01;;;;;;;20.85;18.15;;;;;;;4.54;63.23;101586.91;5010066;28;20065;-84
2022/12/04 06:53:29;;;;;;;18.20;15.95;;;;;;;4.54;63.29;101586.91;4994984;28;20137;-82
2022/12/04 06:55:55;;;;;;;30.10;20.77;;;;;;;4.57;63.43;101600.94;5008730;28;20398;-84
2022/12/04 06:58:20;;;;;;;28.48;20.38;;;;;;;4.56;63.46;101602.75;4992651;28;20097;-80
2022/12/04 07:00:47;;;;;;;18.45;16.63;;;;;;;4.55;63.01;101604.59;5010524;28;20119;-82
2022/12/04 07:03:12;;;;;;;27.42;20.05;;;;;;;4.55;63.47;101609.97;4994954;28;20547;-84
2022/12/04 07:05:37;;;;;;;20.83;18.85;;;;;;;4.55;63.25;101612.63;5010613;28;20034;-85
2022/12/04 07:08:03;;;;;;;31.05;19.23;;;;;;;4.54;63.17;101608.31;5012592;28;20161;-81
2022/12/04 07:10:28;;;;;;;20.88;18.92;;;;;;;4.55;63.19;101611.81;4997164;28;20034;-84
2022/12/04 07:12:54;;;;;;;16.02;14.60;;;;;;;4.56;63.10;101613.47;4996912;28;20041;-81
2022/12/04 07:15:19;;;;;;;11.75;11.15;;;;;;;4.54;63.23;101621.69;5012880;28;20088;-83
2022/12/04 07:17:45;;;;;;;20.45;18.52;;;;;;;4.54;63.18;101621.69;5013511;28;20088;-82
2022/12/04 07:20:11;;;;;;;40.65;23.75;;;;;;;4.53;63.12;101622.69;5012806;28;20121;-81
2022/12/04 07:22:36;;;;;;;16.63;15.10;;;;;;;4.49;62.99;101624.06;5014582;28;20042;-81
2022/12/04 07:25:02;;;;;;;32.35;21.65;;;;;;;4.48;63.08;101621.56;4998472;28;20046;-82
2022/12/04 07:27:29;;;;;;;14.27;12.93;;;;;;;4.49;63.43;101628.59;5021552;28;20080;-86
2022/12/04 07:29:54;;;;;;;38.58;23.30;;;;;;;4.49;63.41;101629.44;5024675;28;20485;-82
2022/12/04 07:32:20;;;;;;;22.98;20.52;;;;;;;4.49;63.26;101632.09;5017881;28;20022;-83
2022/12/04 07:34:45;;;;;;;31.90;21.95;;;;;;;4.49;63.20;101636.63;5016249;28;20040;-82
2022/12/04 07:37:11;;;;;;;12.95;11.43;;;;;;;4.47;63.25;101631.44;5003884;28;20386;-84
2022/12/04 07:39:36;;;;;;;18.90;16.85;;;;;;;4.46;63.32;101626.25;4997944;28;20038;-84
2022/12/04 07:42:01;;;;;;;22.00;19.90;;;;;;;4.47;63.19;101628.78;4996961;28;20124;-84
2022/12/04 07:44:30;;;;;;;23.35;18.75;;;;;;;4.48;63.08;101627.75;5023137;28;20129;-82
2022/12/04 07:46:55;;;;;;;22.88;16.30;;;;;;;4.48;63.22;101630.41;4999767;28;20030;-81
2022/12/04 07:49:20;;;;;;;19.23;17.38;;;;;;;4.49;63.32;101625.94;5009969;28;20103;-83
2022/12/04 07:51:46;;;;;;;14.05;13.02;;;;;;;4.50;63.45;101636.44;5012401;28;20153;-82
2022/12/04 07:54:11;;;;;;;17.73;16.20;;;;;;;4.49;63.25;101636.63;4997063;28;20091;-83
2022/12/04 07:56:36;;;;;;;23.85;16.63;;;;;;;4.50;63.40;101632.94;4984006;28;20418;-82
2022/12/04 07:59:02;;;;;;;27.85;19.10;;;;;;;4.51;63.39;101643.47;5009030;28;20071;-83
2022/12/04 08:01:28;;;;;;;17.95;16.10;;;;;;;4.53;63.10;101640.59;5012247;28;20034;-81
2022/12/04 08:03:55;;;;;;;30.48;18.48;;;;;;;4.51;63.32;101638.09;5013336;28;20025;-81
2022/12/04 08:06:23;;;;;;;32.67;15.25;;;;;;;4.53;63.46;101637.91;5013613;28;20067;-82
2022/12/04 08:08:50;;;;;;;24.45;18.92;;;;;;;4.51;63.17;101640.78;5012507;28;20544;-82
2022/12/04 08:11:19;;;;;;;18.35;16.42;;;;;;;4.51;63.25;101647.94;5007598;28;20382;-83
2022/12/04 08:13:45;;;;;;;15.27;13.95;;;;;;;4.49;63.29;101642.81;5014632;28;20111;-84
2022/12/04 08:16:11;;;;;;;33.22;19.30;;;;;;;4.50;63.18;101644.47;5012751;28;20058;-82
2022/12/04 08:18:37;;;;;;;18.45;16.15;;;;;;;4.50;63.16;101640.94;5013554;28;20041;-82
2022/12/04 08:21:03;;;;;;;17.98;14.50;;;;;;;4.49;63.21;101650.00;5012693;28;20041;-84
2022/12/04 08:23:28;;;;;;;12.38;11.73;;;;;;;4.48;63.10;101651.00;5013429;28;20034;-82
2022/12/04 08:25:57;;;;;;;30.45;20.42;;;;;;;4.47;63.36;101654.69;5022366;28;20038;-82
2022/12/04 08:28:22;;;;;;;20.52;18.38;;;;;;;4.47;63.42;101655.53;5012765;28;20445;-82
2022/12/04 08:30:48;;;;;;;23.52;18.27;;;;;;;4.47;63.27;101657.38;5013437;28;20038;-84
2022/12/04 08:33:13;;;;;;;27.02;20.58;;;;;;;4.46;63.24;101655.69;5013186;28;20038;-81
2022/12/04 08:35:38;;;;;;;17.05;15.40;;;;;;;4.45;63.17;101662.06;5013041;28;20045;-82
2022/12/04 08:38:04;;;;;;;31.85;22.40;;;;;;;4.43;63.19;101658.72;5011347;28;20037;-82
2022/12/04 08:40:29;;;;;;;15.30;13.88;;;;;;;4.42;63.27;101660.59;5011864;28;20096;-80
2022/12/04 08:42:54;;;;;;;35.13;22.60;;;;;;;4.42;63.01;101651.72;4987636;28;20045;-79
2022/12/04 08:45:20;;;;;;;26.77;19.40;;;;;;;4.42;63.53;101662.44;5011932;28;20062;-82
2022/12/04 08:47:45;;;;;;;14.45;13.35;;;;;;;4.42;63.41;101654.41;4994997;28;20090;-81
2022/12/04 08:50:10;;;;;;;15.02;13.77;;;;;;;4.41;63.15;101642.88;5011095;28;20457;-84
2022/12/04 08:52:36;;;;;;;15.35;13.85;;;;;;;4.42;63.44;101652.56;5012329;28;20052;-81
2022/12/04 08:55:01;;;;;;;16.70;15.23;;;;;;;4.44;63.48;101655.06;4994745;28;20133;-81
2022/12/04 08:57:27;;;;;;;17.02;15.43;;;;;;;4.43;63.56;101651.53;5026989;28;20108;-82
2022/12/04 08:59:52;;;;;;;27.88;22.00;;;;;;;4.45;63.43;101654.03;5011853;28;20038;-84
2022/12/04 09:02:17;;;;;;;21.52;17.90;;;;;;;4.46;63.72;101653.88;5026301;28;20044;-83
2022/12/04 09:04:43;;;;;;;27.58;19.42;;;;;;;4.47;63.47;101647.50;5021932;28;20445;-81
2022/12/04 09:07:08;;;;;;;18.17;15.45;;;;;;;4.50;63.33;101651.66;5010959;28;20121;-83
2022/12/04 09:09:34;;;;;;;30.30;19.38;;;;;;;4.48;63.42;101645.66;4994954;28;20030;-81
2022/12/04 09:11:59;;;;;;;20.10;16.15;;;;;;;4.46;63.53;101645.84;5013594;28;20034;-80
2022/12/04 09:14:25;;;;;;;14.15;13.07;;;;;;;4.44;63.57;101645.19;4992440;28;20034;-83
2022/12/04 09:16:54;;;;;;;18.42;16.58;;;;;;;4.44;63.46;101644.38;5003718;28;20498;-80
2022/12/04 09:19:20;;;;;;;15.63;14.18;;;;;;;4.42;63.07;101643.72;4993182;28;20057;-82
2022/12/04 09:21:46;;;;;;;15.82;14.23;;;;;;;4.42;63.54;101641.84;5011891;28;20088;-82
2022/12/04 09:24:11;;;;;;;22.35;15.20;;;;;;;4.44;63.57;101652.38;4975781;28;20044;-82
2022/12/04 09:26:37;;;;;;;21.90;16.17;;;;;;;4.46;63.36;101647.66;5001455;28;20037;-82
2022/12/04 09:29:04;;;;;;;21.27;18.05;;;;;;;4.45;63.31;101654.88;5027281;28;20056;-80
2022/12/04 09:31:30;;;;;;;14.93;13.98;;;;;;;4.45;63.21;101656.72;5012623;28;20037;-82
2022/12/04 09:34:00;;;;;;;19.42;15.55;;;;;;;4.42;63.37;101654.41;5012749;28;20654;-82
2022/12/04 09:36:26;;;;;;;29.90;19.55;;;;;;;4.43;63.47;101656.06;5010645;28;20032;-81
2022/12/04 09:38:53;;;;;;;22.25;17.77;;;;;;;4.42;63.15;101655.22;5007519;28;20479;-82
2022/12/04 09:41:24;;;;;;;17.77;15.88;;;;;;;4.41;63.53;101658.94;5007236;28;20029;-80
2022/12/04 09:44:07;;;;;;;23.13;17.23;;;;;;;4.41;63.44;101658.06;5013749;28;20049;-82
2022/12/04 09:46:45;;;;;;;26.98;22.10;;;;;;;4.40;63.60;101653.75;5018329;28;20034;-81
2022/12/04 09:49:38;;;;;;;31.67;17.00;;;;;;;4.40;63.25;101659.94;5000609;28;20500;-81
2022/12/04 09:52:26;;;;;;;14.27;13.07;;;;;;;4.40;63.55;101664.44;5011477;28;20113;-81
2022/12/04 09:54:54;;;;;;;15.90;14.30;;;;;;;4.38;63.03;101661.13;5011483;28;20061;-82
2022/12/04 09:57:27;;;;;;;22.88;18.70;;;;;;;4.36;63.36;101663.13;5024010;28;20336;-82
2022/12/04 09:59:53;;;;;;;20.90;15.60;;;;;;;4.33;63.08;101665.19;5007641;28;20121;-82
2022/12/04 10:02:40;;;;;;;16.25;14.27;;;;;;;4.34;63.19;101674.03;5011352;28;20060;-83
2022/12/04 10:05:13;;;;;;;22.73;16.73;;;;;;;4.32;63.35;101671.53;5009505;28;20437;-79
2022/12/04 10:07:55;;;;;;;19.38;16.80;;;;;;;4.34;63.16;101664.16;5010867;28;20120;-80
2022/12/04 10:10:34;;;;;;;19.35;17.65;;;;;;;4.34;63.41;101666.81;5011825;28;20493;-80
2022/12/04 10:13:18;;;;;;;17.55;15.45;;;;;;;4.33;63.18;101662.50;5015432;28;20025;-80
2022/12/04 10:16:10;;;;;;;15.23;13.80;;;;;;;4.34;63.57;101657.97;5010750;28;20041;-81
2022/12/04 10:18:38;;;;;;;17.33;15.45;;;;;;;4.35;63.44;101651.59;5011379;28;20041;-80
2022/12/04 10:21:19;;;;;;;17.70;15.38;;;;;;;4.34;63.20;101648.09;5026370;28;20026;-82
2022/12/04 10:24:01;;;;;;;15.75;14.18;;;;;;;4.33;63.38;101649.13;5007600;28;20457;-84
2022/12/04 10:26:32;;;;;;;19.95;17.92;;;;;;;4.35;63.50;101648.94;4994660;28;20044;-83
2022/12/04 10:29:02;;;;;;;13.25;12.25;;;;;;;4.36;63.18;101644.41;5010007;28;20087;-81
2022/12/04 10:31:28;;;;;;;18.38;16.65;;;;;;;4.37;63.46;101646.91;5013040;28;20030;-82
2022/12/04 10:34:00;;;;;;;20.90;18.35;;;;;;;4.38;63.33;101640.53;5010923;28;20522;-82
2022/12/04 10:36:31;;;;;;;18.90;17.02;;;;;;;4.38;63.49;101640.53;5022406;28;20033;-84
2022/12/04 10:38:58;;;;;;;16.50;14.90;;;;;;;4.38;63.42;101639.72;5022477;28;20038;-82
2022/12/04 10:41:37;;;;;;;15.07;13.75;;;;;;;4.37;63.49;101643.41;5014082;28;20466;-82
2022/12/04 10:44:03;;;;;;;17.50;15.80;;;;;;;4.38;63.62;101653.09;5015331;28;20115;-83
2022/12/04 10:46:33;;;;;;;17.92;16.00;;;;;;;4.37;63.34;101659.47;5020046;28;20132;-81
2022/12/04 10:49:02;;;;;;;19.40;17.17;;;;;;;4.36;63.34;101655.09;5022833;28;20034;-82
2022/12/04 10:51:30;;;;;;;;;;;;;;;4.34;63.25;101660.66;5014799;28;20498;-81
2022/12/04 10:53:55;;;;;;;20.52;15.50;;;;;;;4.30;63.41;101652.13;5013279;28;19996;-82
2022/12/04 10:56:24;;;;;;;15.68;14.13;;;;;;;4.30;63.29;101662.00;5012474;28;20272;-84
2022/12/04 10:58:59;;;;;;;;;;;;;;;4.31;63.36;101651.16;5017786;28;20036;-82
2022/12/04 11:01:26;;;;;;;19.40;16.95;;;;;;;4.30;63.11;101653.97;5021883;28;19917;-84
2022/12/04 11:04:08;;;;;;;17.20;15.00;;;;;;;4.28;62.91;101648.84;5015214;28;20093;-80
2022/12/04 11:06:34;;;;;;;13.57;12.45;;;;;;;4.26;63.14;101650.03;5006121;28;20481;-83
2022/12/04 11:09:01;;;;;;;22.60;18.75;;;;;;;4.24;63.30;101649.38;5013317;28;20397;-83
2022/12/04 11:11:32;;;;;;;20.23;17.23;;;;;;;4.24;63.51;101639.50;5018729;28;20030;-81
2022/12/04 11:14:11;;;;;;;13.73;12.73;;;;;;;4.24;63.40;101636.81;5018894;28;20041;-82
2022/12/04 11:16:45;;;;;;;14.05;12.95;;;;;;;4.23;63.38;101629.78;5014300;28;20068;-81
2022/12/04 11:19:25;;;;;;;17.77;15.88;;;;;;;4.26;63.08;101624.09;5001344;28;20136;-80
2022/12/04 11:21:53;;;;;;;18.02;15.88;;;;;;;4.27;63.41;101623.09;5016496;28;20030;-80
2022/12/04 11:24:22;;;;;;;18.65;16.67;;;;;;;4.30;63.22;101624.56;5016513;28;20490;-81
2022/12/04 11:26:49;;;;;;;12.85;12.05;;;;;;;4.30;63.21;101620.03;5007496;28;20091;-80
2022/12/04 11:29:17;;;;;;;19.52;17.27;;;;;;;4.30;63.54;101613.88;5009503;28;20786;-82
2022/12/04 11:31:51;;;;;;;27.50;19.63;;;;;;;4.31;63.30;101620.91;5007410;28;20034;-82
2022/12/04 11:34:24;;;;;;;21.23;16.48;;;;;;;4.28;63.37;101619.41;5009789;28;20053;-83
2022/12/04 11:36:53;;;;;;;17.05;15.32;;;;;;;4.28;63.53;101618.56;5011939;28;20057;-83
2022/12/04 11:39:27;;;;;;;15.15;13.85;;;;;;;4.27;63.72;101614.22;5010413;28;20041;-82
2022/12/04 11:42:26;;;;;;;16.92;15.48;;;;;;;4.27;63.57;101622.25;5010721;28;20034;-81
2022/12/04 11:44:53;;;;;;;;;;;;;;;4.27;63.43;101619.59;4997673;28;20629;-82